createdAt,value
2018-12-22T00:01:31.803Z,154.27
2018-12-22T00:04:03.795Z,146.27
2018-12-22T00:06:35.867Z,169.05
2018-12-22T00:09:08.321Z,161.07
2018-12-22T00:11:40.817Z,197.87
2018-12-22T00:14:12.896Z,201.27
2018-12-22T00:16:45.081Z,186.37
2018-12-22T00:19:17.038Z,197.00
2018-12-22T00:21:49.313Z,197.80
2018-12-22T00:24:21.263Z,203.27
2018-12-22T00:26:53.155Z,194.00
2018-12-22T00:29:25.037Z,195.70
2018-12-22T00:31:57.302Z,211.00
2018-12-22T00:34:29.358Z,207.63
2018-12-22T00:37:01.283Z,220.33
2018-12-22T00:39:33.346Z,200.03
2018-12-22T00:42:05.981Z,226.42
2018-12-22T00:44:38.056Z,229.37
2018-12-22T00:47:10.005Z,231.93
2018-12-22T00:49:42.103Z,238.70
2018-12-22T00:52:15.421Z,218.97
2018-12-22T00:54:51.351Z,222.77
2018-12-22T00:57:38.455Z,201.27
2018-12-22T01:00:36.954Z,206.60
2018-12-22T01:03:20.367Z,216.27
2018-12-22T01:06:19.420Z,209.70
2018-12-22T01:09:11.191Z,204.53
2018-12-22T01:11:59.509Z,199.77
2018-12-22T01:14:34.623Z,204.83
2018-12-22T01:17:20.131Z,187.13
2018-12-22T01:20:00.956Z,194.20
2018-12-22T01:22:46.472Z,190.80
2018-12-22T01:25:45.646Z,181.60
2018-12-22T01:28:42.033Z,191.70
2018-12-22T01:31:34.462Z,176.63
2018-12-22T01:34:31.191Z,169.57
2018-12-22T01:37:10.398Z,168.73
2018-12-22T01:39:45.528Z,172.87
2018-12-22T01:42:40.160Z,168.87
2018-12-22T01:45:17.332Z,176.93
2018-12-22T01:51:20.551Z,190.10
2018-12-22T01:54:10.376Z,182.13
2018-12-22T01:56:42.734Z,158.63
2018-12-22T01:59:16.456Z,166.73
2018-12-22T02:02:08.217Z,152.13
2018-12-22T02:04:50.028Z,163.17
2018-12-22T02:07:35.739Z,165.55
2018-12-22T02:13:50.127Z,153.07
2018-12-22T02:16:53.556Z,168.00
2018-12-22T02:19:27.173Z,170.50
2018-12-22T02:22:00.164Z,167.37
2018-12-22T02:24:33.078Z,144.23
2018-12-22T02:27:23.124Z,156.87
2018-12-22T02:30:16.621Z,169.53
2018-12-22T02:33:04.594Z,149.23
2018-12-22T02:36:16.735Z,155.27
2018-12-22T02:39:09.934Z,146.13
2018-12-22T02:41:45.132Z,148.13
2018-12-22T02:44:21.484Z,150.60
2018-12-22T02:47:19.741Z,169.97
2018-12-22T02:50:10.700Z,153.90
2018-12-22T02:53:00.758Z,149.03
2018-12-22T02:55:51.816Z,138.90
2018-12-22T03:05:02.152Z,140.57
2018-12-22T03:07:38.309Z,128.43
2018-12-22T03:10:11.309Z,129.35
2018-12-22T03:12:47.174Z,126.57
2018-12-22T03:25:30.780Z,112.80
2018-12-22T03:28:07.394Z,116.95
2018-12-22T03:30:46.529Z,120.43
2018-12-22T03:33:30.922Z,113.40
2018-12-22T03:36:13.485Z,122.20
2018-12-22T03:45:32.164Z,113.20
2018-12-22T03:48:06.605Z,108.17
2018-12-22T03:50:49.730Z,113.70
2018-12-22T03:53:35.599Z,104.43
2018-12-22T03:56:13.795Z,102.07
2018-12-22T03:59:00.189Z,117.10
2018-12-22T04:05:13.914Z,114.90
2018-12-22T04:11:20.018Z,113.23
2018-12-22T04:14:04.300Z,118.63
2018-12-22T04:16:44.859Z,111.10
2018-12-22T04:26:25.194Z,112.73
2018-12-22T04:29:22.097Z,97.10
2018-12-22T04:31:58.117Z,90.40
2018-12-22T04:34:40.308Z,98.03
2018-12-22T04:37:15.749Z,94.30
2018-12-22T04:39:51.474Z,90.55
2018-12-22T04:42:37.254Z,96.90
2018-12-22T04:45:26.851Z,87.10
2018-12-22T04:48:16.365Z,83.27
2018-12-22T04:51:08.104Z,95.77
2018-12-22T04:53:43.344Z,89.90
2018-12-22T04:56:18.604Z,104.40
2018-12-22T04:59:02.960Z,87.47
2018-12-22T05:01:50.723Z,78.67
2018-12-22T05:04:46.158Z,92.43
2018-12-22T05:08:05.189Z,81.03
2018-12-22T05:11:08.960Z,87.47
2018-12-22T05:13:46.820Z,79.77
2018-12-22T05:16:32.497Z,79.04
2018-12-22T05:19:10.142Z,78.27
2018-12-22T05:22:02.429Z,61.67
2018-12-22T05:24:46.522Z,69.13
2018-12-22T05:27:26.896Z,75.17
2018-12-22T05:33:23.793Z,64.83
2018-12-22T05:39:12.791Z,59.90
2018-12-22T05:41:49.717Z,61.53
2018-12-22T05:44:29.093Z,73.73
2018-12-22T05:47:04.763Z,59.43
2018-12-22T05:56:30.124Z,59.37
2018-12-22T05:59:19.687Z,56.73
2018-12-22T06:01:59.848Z,67.10
2018-12-22T06:04:47.661Z,66.65
2018-12-22T06:07:27.362Z,68.97
2018-12-22T06:10:13.726Z,63.87
2018-12-22T06:13:22.846Z,58.70
2018-12-22T06:19:53.208Z,54.77
2018-12-22T06:22:28.022Z,65.03
2018-12-22T06:25:28.437Z,51.90
2018-12-22T06:28:27.027Z,66.67
2018-12-22T06:34:22.867Z,68.27
2018-12-22T06:37:12.814Z,66.47
2018-12-22T06:40:02.737Z,65.37
2018-12-22T06:42:34.702Z,62.27
2018-12-22T06:45:09.068Z,57.50
2018-12-22T06:48:12.476Z,57.58
2018-12-22T06:50:58.375Z,57.87
2018-12-22T06:53:47.830Z,61.98
2018-12-22T06:56:36.005Z,59.23
2018-12-22T07:02:43.664Z,65.00
2018-12-22T07:05:18.714Z,66.60
2018-12-22T07:07:53.088Z,52.67
2018-12-22T07:10:30.413Z,78.40
2018-12-22T07:13:10.386Z,53.28
2018-12-22T07:15:50.518Z,64.23
2018-12-22T07:18:36.182Z,60.73
2018-12-22T07:21:24.222Z,65.05
2018-12-22T07:27:21.387Z,59.90
2018-12-22T07:29:57.058Z,77.42
2018-12-22T07:32:35.195Z,64.13
2018-12-22T07:35:16.874Z,53.20
2018-12-22T07:41:36.711Z,68.13
2018-12-22T07:47:34.770Z,70.63
2018-12-22T07:50:30.066Z,72.70
2018-12-22T07:53:14.950Z,63.53
2018-12-22T07:59:30.188Z,80.00
2018-12-22T08:02:19.852Z,80.73
2018-12-22T08:05:02.614Z,73.13
2018-12-22T08:10:56.999Z,70.03
2018-12-22T08:13:32.320Z,77.17
2018-12-22T08:16:21.174Z,82.42
2018-12-22T08:19:08.863Z,72.67
2018-12-22T08:21:45.161Z,92.10
2018-12-22T08:27:38.062Z,119.23
2018-12-22T08:33:33.238Z,128.23
2018-12-22T08:36:06.912Z,127.10
2018-12-22T08:38:39.794Z,135.50
2018-12-22T08:41:11.856Z,134.60
2018-12-22T08:43:43.883Z,119.10
2018-12-22T08:46:16.040Z,131.40
2018-12-22T08:48:48.283Z,134.50
2018-12-22T08:51:20.205Z,123.27
2018-12-22T08:53:52.075Z,141.17
2018-12-22T08:56:24.115Z,138.93
2018-12-22T08:58:56.426Z,142.63
2018-12-22T09:01:28.485Z,144.77
2018-12-22T09:04:00.524Z,146.00
2018-12-22T09:06:32.847Z,143.57
2018-12-22T09:09:06.380Z,128.90
2018-12-22T09:11:38.962Z,129.60
2018-12-22T09:14:11.015Z,155.80
2018-12-22T09:16:43.106Z,145.15
2018-12-22T09:19:15.237Z,154.57
2018-12-22T09:21:47.552Z,132.60
2018-12-22T09:24:19.494Z,150.73
2018-12-22T09:26:51.439Z,145.45
2018-12-22T09:29:23.368Z,150.17
2018-12-22T09:31:56.236Z,151.97
2018-12-22T09:34:28.249Z,166.20
2018-12-22T09:37:01.092Z,154.25
2018-12-22T09:39:33.261Z,146.27
2018-12-22T09:42:05.243Z,155.67
2018-12-22T09:44:37.386Z,154.45
2018-12-22T09:47:09.457Z,165.07
2018-12-22T09:49:41.457Z,152.30
2018-12-22T09:52:13.511Z,174.07
2018-12-22T09:54:45.464Z,176.67
2018-12-22T09:57:17.360Z,180.70
2018-12-22T09:59:49.411Z,190.80
2018-12-22T10:02:21.298Z,178.63
2018-12-22T10:04:53.198Z,200.33
2018-12-22T10:07:25.149Z,177.80
2018-12-22T10:09:57.178Z,183.43
2018-12-22T10:12:29.238Z,194.80
2018-12-22T10:15:01.141Z,183.33
2018-12-22T10:17:33.405Z,185.40
2018-12-22T10:20:05.969Z,174.68
2018-12-22T10:22:37.980Z,188.33
2018-12-22T10:25:10.180Z,178.73
2018-12-22T10:27:42.192Z,155.40
2018-12-22T10:30:14.675Z,179.72
2018-12-22T10:32:46.545Z,174.23
2018-12-22T10:35:30.350Z,161.63
2018-12-22T10:38:02.361Z,166.77
2018-12-22T10:40:34.401Z,157.53
2018-12-22T10:43:06.585Z,140.60
2018-12-22T10:45:38.796Z,144.05
2018-12-22T10:48:10.807Z,130.37
2018-12-22T10:50:42.803Z,142.60
2018-12-22T10:53:14.911Z,119.90
2018-12-22T10:55:46.993Z,132.77
2018-12-22T10:58:19.030Z,111.80
2018-12-22T11:00:51.199Z,107.45
2018-12-22T11:03:23.170Z,114.73
2018-12-22T11:05:55.176Z,95.17
2018-12-22T11:08:27.094Z,101.67
2018-12-22T11:10:58.948Z,107.50
2018-12-22T11:13:30.895Z,87.72
2018-12-22T11:16:02.975Z,84.73
2018-12-22T11:18:35.048Z,76.50
2018-12-22T11:21:07.101Z,82.10
2018-12-22T11:23:39.284Z,70.67
2018-12-22T11:26:11.253Z,63.43
2018-12-22T11:28:43.263Z,73.47
2018-12-22T11:31:15.211Z,62.10
2018-12-22T11:33:47.102Z,53.27
2018-12-22T11:36:19.721Z,54.75
2018-12-22T11:38:53.463Z,45.17
2018-12-22T11:41:25.678Z,45.27
2018-12-22T11:43:57.622Z,47.25
2018-12-22T11:46:29.626Z,40.17
2018-12-22T11:49:01.621Z,34.70
2018-12-22T11:51:33.665Z,32.60
2018-12-22T11:54:05.946Z,40.37
2018-12-22T11:56:38.174Z,40.47
2018-12-22T11:59:10.328Z,36.33
2018-12-22T12:01:43.713Z,31.40
2018-12-22T12:04:16.175Z,31.95
2018-12-22T12:06:48.184Z,37.03
2018-12-22T12:09:22.546Z,34.90
2018-12-22T12:11:55.714Z,34.48
2018-12-22T12:14:27.648Z,34.97
2018-12-22T12:16:59.718Z,33.90
2018-12-22T12:19:31.756Z,28.27
2018-12-22T12:22:03.826Z,33.10
2018-12-22T12:24:35.667Z,25.63
2018-12-22T12:27:08.271Z,22.03
2018-12-22T12:29:40.417Z,23.67
2018-12-22T12:32:12.280Z,18.53
2018-12-22T12:34:44.333Z,14.40
2018-12-22T12:37:16.171Z,23.13
2018-12-22T12:39:48.403Z,19.47
2018-12-22T12:42:20.435Z,15.77
2018-12-22T12:44:52.811Z,13.10
2018-12-22T12:47:25.949Z,14.17
2018-12-22T12:49:58.000Z,14.13
2018-12-22T12:52:29.976Z,22.47
2018-12-22T12:55:02.152Z,9.03
2018-12-22T12:57:34.205Z,20.37
2018-12-22T13:00:11.893Z,12.20
2018-12-22T13:02:43.994Z,11.77
2018-12-22T13:05:16.021Z,12.47
2018-12-22T13:07:47.883Z,13.40
2018-12-22T13:10:20.241Z,17.17
2018-12-22T13:13:04.309Z,10.70
2018-12-22T13:15:36.405Z,14.47
2018-12-22T13:18:08.497Z,10.57
2018-12-22T13:20:41.008Z,11.70
2018-12-22T13:23:13.042Z,13.70
2018-12-22T13:25:45.080Z,12.58
2018-12-22T13:28:17.151Z,11.63
2018-12-22T13:30:49.143Z,9.00
2018-12-22T13:33:21.675Z,13.37
2018-12-22T13:35:53.913Z,17.17
2018-12-22T13:38:25.877Z,12.10
2018-12-22T13:40:57.810Z,12.57
2018-12-22T13:43:29.826Z,10.82
2018-12-22T13:46:01.781Z,10.33
2018-12-22T13:48:33.917Z,11.57
2018-12-22T13:51:05.870Z,13.67
2018-12-22T13:53:37.957Z,14.53
2018-12-22T13:56:09.918Z,11.10
2018-12-22T13:58:42.553Z,7.60
2018-12-22T14:01:14.496Z,11.50
2018-12-22T14:03:46.495Z,12.43
2018-12-22T14:06:19.305Z,11.95
2018-12-22T14:08:51.387Z,14.70
2018-12-22T14:11:23.364Z,11.17
2018-12-22T14:13:55.622Z,10.27
2018-12-22T14:16:28.247Z,17.63
2018-12-22T14:19:00.389Z,11.60
2018-12-22T14:21:32.284Z,9.75
2018-12-22T14:24:20.515Z,9.40
2018-12-22T14:26:52.697Z,12.70
2018-12-22T14:29:24.799Z,10.10
2018-12-22T14:31:56.744Z,8.53
2018-12-22T14:34:28.820Z,17.90
2018-12-22T14:37:02.300Z,14.47
2018-12-22T14:39:34.219Z,9.93
2018-12-22T14:42:06.165Z,20.10
2018-12-22T14:44:39.088Z,16.07
2018-12-22T14:47:11.087Z,9.33
2018-12-22T14:49:43.075Z,16.67
2018-12-22T14:52:15.099Z,11.70
2018-12-22T14:54:47.284Z,19.00
2018-12-22T14:57:19.265Z,10.20
2018-12-22T14:59:51.117Z,7.60
2018-12-22T15:02:22.907Z,10.33
2018-12-22T15:04:54.636Z,9.70
2018-12-22T15:07:26.777Z,12.97
2018-12-22T15:09:58.969Z,10.48
2018-12-22T15:12:30.909Z,19.60
2018-12-22T15:15:02.802Z,10.50
2018-12-22T15:17:34.859Z,11.80
2018-12-22T15:20:27.974Z,10.13
2018-12-22T15:23:00.013Z,11.03
2018-12-22T15:25:32.677Z,9.03
2018-12-22T15:28:04.669Z,9.07
2018-12-22T15:30:36.506Z,9.50
2018-12-22T15:33:08.698Z,11.23
2018-12-22T15:35:41.517Z,14.03
2018-12-22T15:38:13.458Z,7.80
2018-12-22T15:40:45.532Z,10.03
2018-12-22T15:43:17.713Z,9.07
2018-12-22T15:45:49.596Z,7.33
2018-12-22T15:48:21.614Z,10.53
2018-12-22T15:50:53.563Z,13.60
2018-12-22T15:53:25.538Z,10.17
2018-12-22T15:55:59.390Z,8.30
2018-12-22T15:58:31.775Z,10.63
2018-12-22T16:01:03.538Z,8.40
2018-12-22T16:03:35.608Z,9.10
2018-12-22T16:06:08.533Z,11.90
2018-12-22T16:08:40.556Z,5.93
2018-12-22T16:11:12.599Z,7.37
2018-12-22T16:13:44.951Z,11.37
2018-12-22T16:16:16.862Z,9.27
2018-12-22T16:18:48.977Z,7.87
2018-12-22T16:21:21.200Z,7.33
2018-12-22T16:23:53.140Z,13.75
2018-12-22T16:26:24.961Z,10.53
2018-12-22T16:28:58.043Z,7.15
2018-12-22T16:31:30.014Z,7.20
2018-12-22T16:34:02.047Z,10.17
2018-12-22T16:36:34.065Z,7.10
2018-12-22T16:39:10.799Z,8.60
2018-12-22T16:41:42.957Z,14.27
2018-12-22T16:44:14.987Z,6.80
2018-12-22T16:46:47.081Z,7.85
2018-12-22T16:49:19.171Z,6.83
2018-12-22T16:51:51.274Z,7.03
2018-12-22T16:54:23.411Z,7.10
2018-12-22T16:56:55.387Z,9.87
2018-12-22T16:59:27.454Z,6.90
2018-12-22T17:01:59.500Z,9.40
2018-12-22T17:04:31.551Z,10.97
2018-12-22T17:07:03.702Z,8.33
2018-12-22T17:09:35.713Z,9.03
2018-12-22T17:12:07.801Z,8.17
2018-12-22T17:14:40.339Z,6.43
2018-12-22T17:17:12.259Z,6.67
2018-12-22T17:19:44.220Z,8.70
2018-12-22T17:22:16.855Z,10.13
2018-12-22T17:24:48.642Z,8.20
2018-12-22T17:27:20.571Z,17.00
2018-12-22T17:29:52.571Z,7.40
2018-12-22T17:32:24.593Z,9.75
2018-12-22T17:34:56.668Z,9.93
2018-12-22T17:37:28.691Z,6.10
2018-12-22T17:40:08.917Z,7.40
2018-12-22T17:42:34.887Z,6.72
2018-12-22T17:45:10.112Z,5.75
2018-12-22T17:47:42.038Z,6.58
2018-12-22T17:50:14.044Z,7.23
2018-12-22T17:52:45.967Z,6.73
2018-12-22T17:55:18.208Z,7.33
2018-12-22T17:57:50.239Z,5.33
2018-12-22T18:00:22.239Z,7.47
2018-12-22T18:02:54.638Z,9.70
2018-12-22T18:05:26.496Z,11.17
2018-12-22T18:07:58.472Z,14.60
2018-12-22T18:10:30.081Z,10.97
2018-12-22T18:13:01.919Z,8.73
2018-12-22T18:15:33.930Z,13.10
2018-12-22T18:18:05.819Z,7.42
2018-12-22T18:20:37.639Z,8.67
2018-12-22T18:23:09.658Z,4.30
2018-12-22T18:25:41.695Z,5.67
2018-12-22T18:28:13.680Z,7.15
2018-12-22T18:30:45.720Z,3.97
2018-12-22T18:33:17.858Z,6.92
2018-12-22T18:35:49.796Z,6.93
2018-12-22T18:38:22.135Z,7.80
2018-12-22T18:40:54.410Z,5.37
2018-12-22T18:43:26.641Z,8.30
2018-12-22T18:45:58.592Z,6.03
2018-12-22T18:48:30.620Z,5.40
2018-12-22T18:51:02.578Z,8.43
2018-12-22T18:53:34.558Z,4.27
2018-12-22T18:56:07.199Z,9.70
2018-12-22T18:58:39.432Z,5.83
2018-12-22T19:01:11.952Z,7.43
2018-12-22T19:03:44.860Z,8.00
2018-12-22T19:06:17.337Z,6.73
2018-12-22T19:08:49.522Z,6.78
2018-12-22T19:11:21.504Z,7.70
2018-12-22T19:13:53.685Z,16.00
2018-12-22T19:16:25.871Z,12.73
2018-12-22T19:18:58.199Z,7.60
2018-12-22T19:21:30.173Z,8.80
2018-12-22T19:24:02.184Z,8.13
2018-12-22T19:26:34.218Z,8.30
2018-12-22T19:29:06.346Z,10.47
2018-12-22T19:31:41.889Z,11.35
2018-12-22T19:34:13.829Z,8.90
2018-12-22T19:36:45.824Z,10.60
2018-12-22T19:39:18.060Z,11.47
2018-12-22T19:41:50.088Z,14.43
2018-12-22T19:44:22.372Z,6.87
2018-12-22T19:46:54.223Z,8.37
2018-12-22T19:49:26.033Z,9.37
2018-12-22T19:51:58.024Z,6.63
2018-12-22T19:54:29.926Z,12.17
2018-12-22T19:57:01.960Z,9.00
2018-12-22T19:59:34.036Z,8.57
2018-12-22T20:02:05.952Z,12.70
2018-12-22T20:04:38.015Z,5.60
2018-12-22T20:07:10.024Z,10.90
2018-12-22T20:09:41.953Z,8.08
2018-12-22T20:12:14.010Z,4.43
2018-12-22T20:14:47.212Z,11.00
2018-12-22T20:17:19.204Z,5.80
2018-12-22T20:19:51.227Z,7.37
2018-12-22T20:22:23.286Z,6.00
2018-12-22T20:24:55.254Z,8.28
2018-12-22T20:27:27.147Z,9.13
2018-12-22T20:29:59.124Z,12.45
2018-12-22T20:32:31.381Z,6.27
2018-12-22T20:35:03.411Z,7.93
2018-12-22T20:37:35.839Z,9.35
2018-12-22T20:40:08.535Z,7.60
2018-12-22T20:42:40.433Z,7.33
2018-12-22T20:45:12.355Z,9.53
2018-12-22T20:47:44.194Z,14.00
2018-12-22T20:50:16.068Z,6.60
2018-12-22T20:52:48.122Z,9.77
2018-12-22T20:55:20.163Z,5.53
2018-12-22T20:57:52.217Z,4.30
2018-12-22T21:00:24.152Z,5.10
2018-12-22T21:02:56.055Z,5.23
2018-12-22T21:05:31.147Z,5.92
2018-12-22T21:08:03.122Z,4.60
2018-12-22T21:10:35.038Z,5.80
2018-12-22T21:13:07.048Z,7.63
2018-12-22T21:15:39.065Z,6.80
2018-12-22T21:18:11.262Z,4.70
2018-12-22T21:20:43.267Z,5.10
2018-12-22T21:23:15.384Z,4.97
2018-12-22T21:25:47.302Z,7.07
2018-12-22T21:28:19.396Z,4.63
2018-12-22T21:30:51.365Z,7.27
2018-12-22T21:33:23.295Z,9.47
2018-12-22T21:35:56.046Z,7.75
2018-12-22T21:38:27.957Z,14.00
2018-12-22T21:40:59.826Z,7.73
2018-12-22T21:43:31.705Z,7.13
2018-12-22T21:46:03.759Z,14.57
2018-12-22T21:48:35.831Z,6.60
2018-12-22T21:51:07.776Z,8.47
2018-12-22T21:53:39.763Z,9.23
2018-12-22T21:56:11.877Z,8.40
2018-12-22T21:58:43.841Z,21.47
2018-12-22T22:01:15.868Z,16.10
2018-12-22T22:03:47.863Z,12.13
2018-12-22T22:06:19.773Z,12.33
2018-12-22T22:08:51.666Z,11.80
2018-12-22T22:11:23.665Z,11.43
2018-12-22T22:13:55.797Z,12.10
2018-12-22T22:16:27.963Z,13.70
2018-12-22T22:19:00.180Z,14.00
2018-12-22T22:21:32.131Z,12.93
2018-12-22T22:24:04.154Z,15.40
2018-12-22T22:26:36.149Z,18.02
2018-12-22T22:29:08.148Z,14.35
2018-12-22T22:31:40.032Z,22.07
2018-12-22T22:34:12.210Z,20.97
2018-12-22T22:36:44.196Z,14.63
2018-12-22T22:39:16.178Z,20.87
2018-12-22T22:41:48.559Z,19.03
2018-12-22T22:44:20.468Z,22.00
2018-12-22T22:46:52.321Z,16.50
2018-12-22T22:49:24.406Z,20.23
2018-12-22T22:51:56.437Z,15.13
2018-12-22T22:54:28.470Z,19.70
2018-12-22T22:57:00.350Z,13.77
2018-12-22T22:59:32.431Z,13.68
2018-12-22T23:02:04.383Z,18.53
2018-12-22T23:04:36.409Z,14.77
2018-12-22T23:07:08.365Z,18.40
2018-12-22T23:09:40.304Z,10.80
2018-12-22T23:12:12.234Z,14.73
2018-12-22T23:14:44.343Z,20.77
2018-12-22T23:17:16.224Z,24.47
2018-12-22T23:19:48.382Z,16.23
2018-12-22T23:22:20.390Z,24.30
2018-12-22T23:24:52.263Z,23.87
2018-12-22T23:27:24.108Z,26.97
2018-12-22T23:29:56.060Z,22.67
2018-12-22T23:32:28.554Z,29.97
2018-12-22T23:35:03.189Z,24.63
2018-12-22T23:37:34.917Z,24.50
2018-12-22T23:40:06.941Z,31.17
2018-12-22T23:42:39.037Z,31.27
2018-12-22T23:45:10.949Z,26.47
2018-12-22T23:47:42.889Z,22.73
2018-12-22T23:50:14.948Z,23.37
2018-12-22T23:52:46.980Z,22.20
2018-12-22T23:55:19.036Z,26.77
2018-12-22T23:57:51.227Z,20.63
